sensor_id;sensor_type;location;lat;lon;timestamp;temperature;humidity
15115;DHT22;7658;51.456;7.622;2023-04-24T00:00:05;10.70;99.90
15115;DHT22;7658;51.456;7.622;2023-04-24T00:02:32;10.60;99.90
15115;DHT22;7658;51.456;7.622;2023-04-24T00:04:59;10.60;99.90
15115;DHT22;7658;51.456;7.622;2023-04-24T00:07:27;10.60;99.90
15115;DHT22;7658;51.456;7.622;2023-04-24T00:09:53;10.60;99.90
15115;DHT22;7658;51.456;7.622;2023-04-24T00:12:20;10.50;99.90
15115;DHT22;7658;51.456;7.622;2023-04-24T00:14:45;10.50;99.90
15115;DHT22;7658;51.456;7.622;2023-04-24T00:17:11;10.50;99.90
15115;DHT22;7658;51.456;7.622;2023-04-24T00:19:37;10.50;99.90
15115;DHT22;7658;51.456;7.622;2023-04-24T00:22:03;10.50;99.90
15115;DHT22;7658;51.456;7.622;2023-04-24T00:24:29;10.50;99.90
15115;DHT22;7658;51.456;7.622;2023-04-24T00:26:54;10.50;99.90
15115;DHT22;7658;51.456;7.622;2023-04-24T00:29:20;10.50;99.90
15115;DHT22;7658;51.456;7.622;2023-04-24T00:31:46;10.50;99.90
15115;DHT22;7658;51.456;7.622;2023-04-24T00:34:11;10.50;99.90
15115;DHT22;7658;51.456;7.622;2023-04-24T00:36:38;10.50;99.90
15115;DHT22;7658;51.456;7.622;2023-04-24T00:39:03;10.50;99.90
15115;DHT22;7658;51.456;7.622;2023-04-24T00:41:30;10.40;99.90
15115;DHT22;7658;51.456;7.622;2023-04-24T00:43:55;10.40;99.90
15115;DHT22;7658;51.456;7.622;2023-04-24T00:46:21;10.40;99.90
15115;DHT22;7658;51.456;7.622;2023-04-24T00:48:47;10.40;99.90
15115;DHT22;7658;51.456;7.622;2023-04-24T00:51:13;10.40;99.90
15115;DHT22;7658;51.456;7.622;2023-04-24T00:53:39;10.40;99.90
15115;DHT22;7658;51.456;7.622;2023-04-24T00:56:05;10.30;99.90
15115;DHT22;7658;51.456;7.622;2023-04-24T00:58:31;10.20;99.90
15115;DHT22;7658;51.456;7.622;2023-04-24T01:00:57;10.20;99.90
15115;DHT22;7658;51.456;7.622;2023-04-24T01:03:26;10.20;99.90
15115;DHT22;7658;51.456;7.622;2023-04-24T01:05:54;10.20;99.90
15115;DHT22;7658;51.456;7.622;2023-04-24T01:08:25;10.30;99.90
15115;DHT22;7658;51.456;7.622;2023-04-24T01:10:55;10.30;99.90
15115;DHT22;7658;51.456;7.622;2023-04-24T01:13:22;10.30;99.90
15115;DHT22;7658;51.456;7.622;2023-04-24T01:15:48;10.30;99.90
15115;DHT22;7658;51.456;7.622;2023-04-24T01:18:14;10.30;99.90
15115;DHT22;7658;51.456;7.622;2023-04-24T01:20:41;10.30;99.90
15115;DHT22;7658;51.456;7.622;2023-04-24T01:23:08;10.30;99.90
15115;DHT22;7658;51.456;7.622;2023-04-24T01:25:34;10.30;99.90
15115;DHT22;7658;51.456;7.622;2023-04-24T01:28:01;10.30;99.90
15115;DHT22;7658;51.456;7.622;2023-04-24T01:30:27;10.30;99.90
15115;DHT22;7658;51.456;7.622;2023-04-24T01:32:53;10.20;99.90
15115;DHT22;7658;51.456;7.622;2023-04-24T01:35:19;10.20;99.90
15115;DHT22;7658;51.456;7.622;2023-04-24T01:37:45;10.30;99.90
15115;DHT22;7658;51.456;7.622;2023-04-24T01:40:11;10.30;99.90
15115;DHT22;7658;51.456;7.622;2023-04-24T01:42:37;10.30;99.90
15115;DHT22;7658;51.456;7.622;2023-04-24T01:45:04;10.30;99.90
15115;DHT22;7658;51.456;7.622;2023-04-24T01:47:31;10.30;99.90
15115;DHT22;7658;51.456;7.622;2023-04-24T01:49:57;10.40;99.90
15115;DHT22;7658;51.456;7.622;2023-04-24T01:52:24;10.40;99.90
15115;DHT22;7658;51.456;7.622;2023-04-24T01:54:50;10.40;99.90
15115;DHT22;7658;51.456;7.622;2023-04-24T01:57:16;10.40;99.90
15115;DHT22;7658;51.456;7.622;2023-04-24T01:59:42;10.40;99.90
15115;DHT22;7658;51.456;7.622;2023-04-24T02:02:08;10.40;99.90
15115;DHT22;7658;51.456;7.622;2023-04-24T02:04:33;10.40;99.90
15115;DHT22;7658;51.456;7.622;2023-04-24T02:06:59;10.40;99.90
15115;DHT22;7658;51.456;7.622;2023-04-24T02:09:25;10.40;99.90
15115;DHT22;7658;51.456;7.622;2023-04-24T02:11:51;10.40;99.90
15115;DHT22;7658;51.456;7.622;2023-04-24T02:14:17;10.40;99.90
15115;DHT22;7658;51.456;7.622;2023-04-24T02:16:42;10.40;99.90
15115;DHT22;7658;51.456;7.622;2023-04-24T02:19:09;10.40;99.90
15115;DHT22;7658;51.456;7.622;2023-04-24T02:21:35;10.40;99.90
15115;DHT22;7658;51.456;7.622;2023-04-24T02:24:01;10.40;99.90
15115;DHT22;7658;51.456;7.622;2023-04-24T02:26:27;10.40;99.90
15115;DHT22;7658;51.456;7.622;2023-04-24T02:28:53;10.40;99.90
15115;DHT22;7658;51.456;7.622;2023-04-24T02:31:19;10.40;99.90
15115;DHT22;7658;51.456;7.622;2023-04-24T02:33:45;10.40;99.90
15115;DHT22;7658;51.456;7.622;2023-04-24T02:36:10;10.50;99.90
15115;DHT22;7658;51.456;7.622;2023-04-24T02:38:36;10.40;99.90
15115;DHT22;7658;51.456;7.622;2023-04-24T02:41:02;10.40;99.90
15115;DHT22;7658;51.456;7.622;2023-04-24T02:43:31;10.40;99.90
15115;DHT22;7658;51.456;7.622;2023-04-24T02:45:58;10.30;99.90
15115;DHT22;7658;51.456;7.622;2023-04-24T02:48:23;10.30;99.90
15115;DHT22;7658;51.456;7.622;2023-04-24T02:50:49;10.20;99.90
15115;DHT22;7658;51.456;7.622;2023-04-24T02:53:16;10.20;99.90
15115;DHT22;7658;51.456;7.622;2023-04-24T02:55:42;10.20;99.90
15115;DHT22;7658;51.456;7.622;2023-04-24T02:58:07;10.10;99.90
15115;DHT22;7658;51.456;7.622;2023-04-24T03:00:33;10.10;99.90
15115;DHT22;7658;51.456;7.622;2023-04-24T03:02:59;10.00;99.90
15115;DHT22;7658;51.456;7.622;2023-04-24T03:05:25;9.90;99.90
15115;DHT22;7658;51.456;7.622;2023-04-24T03:07:51;9.90;99.90
15115;DHT22;7658;51.456;7.622;2023-04-24T03:10:18;9.90;99.90
15115;DHT22;7658;51.456;7.622;2023-04-24T03:12:44;9.80;99.90
15115;DHT22;7658;51.456;7.622;2023-04-24T03:15:10;9.80;99.90
15115;DHT22;7658;51.456;7.622;2023-04-24T03:17:35;9.70;99.90
15115;DHT22;7658;51.456;7.622;2023-04-24T03:20:02;9.60;99.90
15115;DHT22;7658;51.456;7.622;2023-04-24T03:22:30;9.50;99.90
15115;DHT22;7658;51.456;7.622;2023-04-24T03:24:58;9.40;99.90
15115;DHT22;7658;51.456;7.622;2023-04-24T03:27:24;9.30;99.90
15115;DHT22;7658;51.456;7.622;2023-04-24T03:29:49;9.30;99.90
15115;DHT22;7658;51.456;7.622;2023-04-24T03:32:19;9.30;99.90
15115;DHT22;7658;51.456;7.622;2023-04-24T03:34:45;9.30;99.90
15115;DHT22;7658;51.456;7.622;2023-04-24T03:37:11;9.30;99.90
15115;DHT22;7658;51.456;7.622;2023-04-24T03:39:36;9.20;99.90
15115;DHT22;7658;51.456;7.622;2023-04-24T03:42:02;9.20;99.90
15115;DHT22;7658;51.456;7.622;2023-04-24T03:44:28;9.20;99.90
15115;DHT22;7658;51.456;7.622;2023-04-24T03:46:54;9.20;99.90
15115;DHT22;7658;51.456;7.622;2023-04-24T03:49:20;9.20;99.90
15115;DHT22;7658;51.456;7.622;2023-04-24T03:51:46;9.20;99.90
15115;DHT22;7658;51.456;7.622;2023-04-24T03:54:11;9.20;99.90
15115;DHT22;7658;51.456;7.622;2023-04-24T03:56:37;9.20;99.90
15115;DHT22;7658;51.456;7.622;2023-04-24T03:59:03;9.20;99.90
15115;DHT22;7658;51.456;7.622;2023-04-24T04:01:28;9.20;99.90
15115;DHT22;7658;51.456;7.622;2023-04-24T04:03:54;9.20;99.90
15115;DHT22;7658;51.456;7.622;2023-04-24T04:06:20;9.20;99.90
15115;DHT22;7658;51.456;7.622;2023-04-24T04:08:46;9.20;99.90
15115;DHT22;7658;51.456;7.622;2023-04-24T04:11:12;9.30;99.90
15115;DHT22;7658;51.456;7.622;2023-04-24T04:13:38;9.20;99.90
15115;DHT22;7658;51.456;7.622;2023-04-24T04:16:04;9.20;99.90
15115;DHT22;7658;51.456;7.622;2023-04-24T04:18:30;9.20;99.90
15115;DHT22;7658;51.456;7.622;2023-04-24T04:20:56;9.20;99.90
15115;DHT22;7658;51.456;7.622;2023-04-24T04:23:22;9.30;99.90
15115;DHT22;7658;51.456;7.622;2023-04-24T04:25:48;9.30;99.90
15115;DHT22;7658;51.456;7.622;2023-04-24T04:28:15;9.30;99.90
15115;DHT22;7658;51.456;7.622;2023-04-24T04:30:41;9.20;99.90
15115;DHT22;7658;51.456;7.622;2023-04-24T04:33:07;9.20;99.90
15115;DHT22;7658;51.456;7.622;2023-04-24T04:35:33;9.10;99.90
15115;DHT22;7658;51.456;7.622;2023-04-24T04:37:59;9.10;99.90
15115;DHT22;7658;51.456;7.622;2023-04-24T04:40:26;9.10;99.90
15115;DHT22;7658;51.456;7.622;2023-04-24T04:42:53;9.10;99.90
15115;DHT22;7658;51.456;7.622;2023-04-24T04:45:19;9.00;99.90
15115;DHT22;7658;51.456;7.622;2023-04-24T04:47:46;9.10;99.90
15115;DHT22;7658;51.456;7.622;2023-04-24T04:50:12;9.10;99.90
15115;DHT22;7658;51.456;7.622;2023-04-24T04:52:38;9.10;99.90
15115;DHT22;7658;51.456;7.622;2023-04-24T04:55:04;9.20;99.90
15115;DHT22;7658;51.456;7.622;2023-04-24T04:57:30;9.20;99.90
15115;DHT22;7658;51.456;7.622;2023-04-24T04:59:56;9.20;99.90
15115;DHT22;7658;51.456;7.622;2023-04-24T05:02:22;9.20;99.90
15115;DHT22;7658;51.456;7.622;2023-04-24T05:04:47;9.20;99.90
15115;DHT22;7658;51.456;7.622;2023-04-24T05:07:13;9.30;99.90
15115;DHT22;7658;51.456;7.622;2023-04-24T05:09:39;9.20;99.90
15115;DHT22;7658;51.456;7.622;2023-04-24T05:12:05;9.20;99.90
15115;DHT22;7658;51.456;7.622;2023-04-24T05:14:30;9.20;99.90
15115;DHT22;7658;51.456;7.622;2023-04-24T05:16:56;9.20;99.90
15115;DHT22;7658;51.456;7.622;2023-04-24T05:19:22;9.20;99.90
15115;DHT22;7658;51.456;7.622;2023-04-24T05:21:48;9.20;99.90
15115;DHT22;7658;51.456;7.622;2023-04-24T05:24:13;9.20;99.90
15115;DHT22;7658;51.456;7.622;2023-04-24T05:26:39;9.20;99.90
15115;DHT22;7658;51.456;7.622;2023-04-24T05:29:05;9.20;99.90
15115;DHT22;7658;51.456;7.622;2023-04-24T05:31:31;9.10;99.90
15115;DHT22;7658;51.456;7.622;2023-04-24T05:33:56;9.10;99.90
15115;DHT22;7658;51.456;7.622;2023-04-24T05:36:22;9.10;99.90
15115;DHT22;7658;51.456;7.622;2023-04-24T05:38:48;9.10;99.90
15115;DHT22;7658;51.456;7.622;2023-04-24T05:41:14;9.10;99.90
15115;DHT22;7658;51.456;7.622;2023-04-24T05:43:40;9.10;99.90
15115;DHT22;7658;51.456;7.622;2023-04-24T05:46:06;9.20;99.90
15115;DHT22;7658;51.456;7.622;2023-04-24T05:48:31;9.20;99.90
15115;DHT22;7658;51.456;7.622;2023-04-24T05:50:57;9.20;99.90
15115;DHT22;7658;51.456;7.622;2023-04-24T05:53:23;9.20;99.90
15115;DHT22;7658;51.456;7.622;2023-04-24T05:55:49;9.20;99.90
15115;DHT22;7658;51.456;7.622;2023-04-24T05:58:15;9.20;99.90
15115;DHT22;7658;51.456;7.622;2023-04-24T06:00:40;9.10;99.90
15115;DHT22;7658;51.456;7.622;2023-04-24T06:03:08;9.10;99.90
15115;DHT22;7658;51.456;7.622;2023-04-24T06:05:34;9.10;99.90
15115;DHT22;7658;51.456;7.622;2023-04-24T06:08:00;9.10;99.90
15115;DHT22;7658;51.456;7.622;2023-04-24T06:10:26;9.10;99.90
15115;DHT22;7658;51.456;7.622;2023-04-24T06:12:52;9.00;99.90
15115;DHT22;7658;51.456;7.622;2023-04-24T06:15:21;9.00;99.90
15115;DHT22;7658;51.456;7.622;2023-04-24T06:17:47;8.90;99.90
15115;DHT22;7658;51.456;7.622;2023-04-24T06:20:13;8.80;99.90
15115;DHT22;7658;51.456;7.622;2023-04-24T06:22:39;8.80;99.90
15115;DHT22;7658;51.456;7.622;2023-04-24T06:25:06;8.80;99.90
15115;DHT22;7658;51.456;7.622;2023-04-24T06:27:32;8.80;99.90
15115;DHT22;7658;51.456;7.622;2023-04-24T06:29:58;8.80;99.90
15115;DHT22;7658;51.456;7.622;2023-04-24T06:32:24;8.90;99.90
15115;DHT22;7658;51.456;7.622;2023-04-24T06:34:53;8.90;99.90
15115;DHT22;7658;51.456;7.622;2023-04-24T06:37:22;9.00;99.90
15115;DHT22;7658;51.456;7.622;2023-04-24T06:39:48;9.00;99.90
15115;DHT22;7658;51.456;7.622;2023-04-24T06:42:14;9.00;99.90
15115;DHT22;7658;51.456;7.622;2023-04-24T06:44:40;9.10;99.90
15115;DHT22;7658;51.456;7.622;2023-04-24T06:47:09;9.10;99.90
15115;DHT22;7658;51.456;7.622;2023-04-24T06:49:38;9.10;99.90
15115;DHT22;7658;51.456;7.622;2023-04-24T06:52:05;9.00;99.90
15115;DHT22;7658;51.456;7.622;2023-04-24T06:54:31;8.90;99.90
15115;DHT22;7658;51.456;7.622;2023-04-24T06:56:57;8.90;99.90
15115;DHT22;7658;51.456;7.622;2023-04-24T06:59:24;8.90;99.90
15115;DHT22;7658;51.456;7.622;2023-04-24T07:01:50;8.90;99.90
15115;DHT22;7658;51.456;7.622;2023-04-24T07:04:19;9.00;99.90
15115;DHT22;7658;51.456;7.622;2023-04-24T07:06:45;9.00;99.90
15115;DHT22;7658;51.456;7.622;2023-04-24T07:09:14;8.90;99.90
15115;DHT22;7658;51.456;7.622;2023-04-24T07:11:50;8.90;99.90
15115;DHT22;7658;51.456;7.622;2023-04-24T07:14:16;8.90;99.90
15115;DHT22;7658;51.456;7.622;2023-04-24T07:16:43;8.80;99.90
15115;DHT22;7658;51.456;7.622;2023-04-24T07:19:09;8.70;99.90
15115;DHT22;7658;51.456;7.622;2023-04-24T07:21:35;8.70;99.90
15115;DHT22;7658;51.456;7.622;2023-04-24T07:24:01;8.60;99.90
15115;DHT22;7658;51.456;7.622;2023-04-24T07:26:29;8.60;99.90
15115;DHT22;7658;51.456;7.622;2023-04-24T07:28:55;8.60;99.90
15115;DHT22;7658;51.456;7.622;2023-04-24T07:31:20;8.60;99.90
15115;DHT22;7658;51.456;7.622;2023-04-24T07:33:47;8.60;99.90
15115;DHT22;7658;51.456;7.622;2023-04-24T07:36:13;8.70;99.90
15115;DHT22;7658;51.456;7.622;2023-04-24T07:38:42;8.90;99.90
15115;DHT22;7658;51.456;7.622;2023-04-24T07:41:08;9.00;99.90
15115;DHT22;7658;51.456;7.622;2023-04-24T07:43:35;9.20;99.90
15115;DHT22;7658;51.456;7.622;2023-04-24T07:46:00;9.20;99.90
15115;DHT22;7658;51.456;7.622;2023-04-24T07:48:26;9.10;99.90
15115;DHT22;7658;51.456;7.622;2023-04-24T07:50:53;9.00;99.90
15115;DHT22;7658;51.456;7.622;2023-04-24T07:53:19;8.90;99.90
15115;DHT22;7658;51.456;7.622;2023-04-24T07:55:45;9.00;99.90
15115;DHT22;7658;51.456;7.622;2023-04-24T07:58:11;9.00;99.90
15115;DHT22;7658;51.456;7.622;2023-04-24T08:00:37;8.90;99.90
15115;DHT22;7658;51.456;7.622;2023-04-24T08:03:02;8.90;99.90
15115;DHT22;7658;51.456;7.622;2023-04-24T08:05:28;8.90;99.90
15115;DHT22;7658;51.456;7.622;2023-04-24T08:07:55;8.90;99.90
15115;DHT22;7658;51.456;7.622;2023-04-24T08:10:22;8.90;99.90
15115;DHT22;7658;51.456;7.622;2023-04-24T08:12:47;8.80;99.90
15115;DHT22;7658;51.456;7.622;2023-04-24T08:15:13;8.70;99.90
15115;DHT22;7658;51.456;7.622;2023-04-24T08:17:39;8.60;99.90
15115;DHT22;7658;51.456;7.622;2023-04-24T08:20:06;8.60;99.90
15115;DHT22;7658;51.456;7.622;2023-04-24T08:22:35;8.60;99.90
15115;DHT22;7658;51.456;7.622;2023-04-24T08:25:01;8.70;99.90
15115;DHT22;7658;51.456;7.622;2023-04-24T08:27:27;8.70;99.90
15115;DHT22;7658;51.456;7.622;2023-04-24T08:29:54;8.90;99.90
15115;DHT22;7658;51.456;7.622;2023-04-24T08:32:20;8.90;99.90
15115;DHT22;7658;51.456;7.622;2023-04-24T08:34:45;8.80;99.90
15115;DHT22;7658;51.456;7.622;2023-04-24T08:37:12;8.80;99.90
15115;DHT22;7658;51.456;7.622;2023-04-24T08:39:37;8.80;99.90
15115;DHT22;7658;51.456;7.622;2023-04-24T08:42:05;8.80;99.90
15115;DHT22;7658;51.456;7.622;2023-04-24T08:44:34;8.90;99.90
15115;DHT22;7658;51.456;7.622;2023-04-24T08:47:02;8.90;99.90
15115;DHT22;7658;51.456;7.622;2023-04-24T08:49:29;8.80;99.90
15115;DHT22;7658;51.456;7.622;2023-04-24T08:51:55;8.70;99.90
15115;DHT22;7658;51.456;7.622;2023-04-24T08:54:21;8.60;99.90
15115;DHT22;7658;51.456;7.622;2023-04-24T08:56:48;8.40;99.90
15115;DHT22;7658;51.456;7.622;2023-04-24T08:59:15;8.30;99.90
15115;DHT22;7658;51.456;7.622;2023-04-24T09:01:41;8.20;99.90
15115;DHT22;7658;51.456;7.622;2023-04-24T09:04:08;8.00;99.90
15115;DHT22;7658;51.456;7.622;2023-04-24T09:06:38;7.90;99.90
15115;DHT22;7658;51.456;7.622;2023-04-24T09:09:04;7.90;99.90
15115;DHT22;7658;51.456;7.622;2023-04-24T09:11:31;7.90;99.90
15115;DHT22;7658;51.456;7.622;2023-04-24T09:14:01;7.90;99.90
15115;DHT22;7658;51.456;7.622;2023-04-24T09:16:27;7.80;99.90
15115;DHT22;7658;51.456;7.622;2023-04-24T09:18:53;7.80;99.90
15115;DHT22;7658;51.456;7.622;2023-04-24T09:21:20;7.70;99.90
15115;DHT22;7658;51.456;7.622;2023-04-24T09:23:46;7.70;99.90
15115;DHT22;7658;51.456;7.622;2023-04-24T09:26:12;7.60;99.90
15115;DHT22;7658;51.456;7.622;2023-04-24T09:28:40;7.60;99.90
15115;DHT22;7658;51.456;7.622;2023-04-24T09:31:17;7.50;99.90
15115;DHT22;7658;51.456;7.622;2023-04-24T09:34:01;7.60;99.90
15115;DHT22;7658;51.456;7.622;2023-04-24T09:36:33;7.50;99.90
15115;DHT22;7658;51.456;7.622;2023-04-24T09:39:00;7.50;99.90
15115;DHT22;7658;51.456;7.622;2023-04-24T09:41:27;7.50;99.90
15115;DHT22;7658;51.456;7.622;2023-04-24T09:43:57;7.40;99.90
15115;DHT22;7658;51.456;7.622;2023-04-24T09:46:30;7.40;99.90
15115;DHT22;7658;51.456;7.622;2023-04-24T09:48:57;7.40;99.90
15115;DHT22;7658;51.456;7.622;2023-04-24T09:51:36;7.50;99.90
15115;DHT22;7658;51.456;7.622;2023-04-24T09:54:18;7.50;99.90
15115;DHT22;7658;51.456;7.622;2023-04-24T09:56:50;7.50;99.90
15115;DHT22;7658;51.456;7.622;2023-04-24T09:59:20;7.60;99.90
15115;DHT22;7658;51.456;7.622;2023-04-24T10:01:46;7.60;99.90
15115;DHT22;7658;51.456;7.622;2023-04-24T10:04:20;7.60;99.90
15115;DHT22;7658;51.456;7.622;2023-04-24T10:06:48;7.60;99.90
15115;DHT22;7658;51.456;7.622;2023-04-24T10:09:24;7.60;99.90
15115;DHT22;7658;51.456;7.622;2023-04-24T10:11:54;7.60;99.90
15115;DHT22;7658;51.456;7.622;2023-04-24T10:14:21;7.60;99.90
15115;DHT22;7658;51.456;7.622;2023-04-24T10:16:48;7.60;99.90
15115;DHT22;7658;51.456;7.622;2023-04-24T10:19:20;7.70;99.90
15115;DHT22;7658;51.456;7.622;2023-04-24T10:21:48;7.70;99.90
15115;DHT22;7658;51.456;7.622;2023-04-24T10:24:16;7.70;99.90
15115;DHT22;7658;51.456;7.622;2023-04-24T10:26:43;7.70;99.90
15115;DHT22;7658;51.456;7.622;2023-04-24T10:29:11;7.70;99.90
15115;DHT22;7658;51.456;7.622;2023-04-24T10:31:38;7.70;99.90
15115;DHT22;7658;51.456;7.622;2023-04-24T10:34:09;7.70;99.90
15115;DHT22;7658;51.456;7.622;2023-04-24T10:36:38;7.70;99.90
15115;DHT22;7658;51.456;7.622;2023-04-24T10:39:09;7.70;99.90
15115;DHT22;7658;51.456;7.622;2023-04-24T10:41:39;7.70;99.90
15115;DHT22;7658;51.456;7.622;2023-04-24T10:44:14;7.60;99.90
15115;DHT22;7658;51.456;7.622;2023-04-24T10:46:44;7.50;99.90
15115;DHT22;7658;51.456;7.622;2023-04-24T10:49:10;7.40;99.90
15115;DHT22;7658;51.456;7.622;2023-04-24T10:51:46;7.30;99.90
15115;DHT22;7658;51.456;7.622;2023-04-24T10:54:29;7.40;99.90
15115;DHT22;7658;51.456;7.622;2023-04-24T10:59:43;7.30;99.90
15115;DHT22;7658;51.456;7.622;2023-04-24T11:02:09;7.40;99.90
15115;DHT22;7658;51.456;7.622;2023-04-24T11:04:35;7.40;99.90
15115;DHT22;7658;51.456;7.622;2023-04-24T11:07:02;7.50;99.90
15115;DHT22;7658;51.456;7.622;2023-04-24T11:09:31;7.40;99.90
15115;DHT22;7658;51.456;7.622;2023-04-24T11:12:05;7.50;99.90
15115;DHT22;7658;51.456;7.622;2023-04-24T11:17:32;7.60;99.90
15115;DHT22;7658;51.456;7.622;2023-04-24T11:20:03;7.50;99.90
15115;DHT22;7658;51.456;7.622;2023-04-24T11:22:34;7.50;99.90
15115;DHT22;7658;51.456;7.622;2023-04-24T11:25:04;7.50;99.90
15115;DHT22;7658;51.456;7.622;2023-04-24T11:27:43;7.50;99.90
15115;DHT22;7658;51.456;7.622;2023-04-24T11:30:10;7.60;99.90
15115;DHT22;7658;51.456;7.622;2023-04-24T11:32:41;7.60;99.90
15115;DHT22;7658;51.456;7.622;2023-04-24T11:37:44;7.60;99.90
15115;DHT22;7658;51.456;7.622;2023-04-24T11:40:16;7.60;99.90
15115;DHT22;7658;51.456;7.622;2023-04-24T11:42:44;7.70;99.90
15115;DHT22;7658;51.456;7.622;2023-04-24T11:45:23;7.70;99.90
15115;DHT22;7658;51.456;7.622;2023-04-24T11:47:49;7.80;99.90
15115;DHT22;7658;51.456;7.622;2023-04-24T11:50:18;7.80;99.90
15115;DHT22;7658;51.456;7.622;2023-04-24T11:52:46;7.80;99.90
15115;DHT22;7658;51.456;7.622;2023-04-24T11:57:48;7.90;99.90
15115;DHT22;7658;51.456;7.622;2023-04-24T12:00:18;7.90;99.90
15115;DHT22;7658;51.456;7.622;2023-04-24T12:02:44;8.00;99.90
15115;DHT22;7658;51.456;7.622;2023-04-24T12:05:22;8.00;99.90
15115;DHT22;7658;51.456;7.622;2023-04-24T12:07:48;8.10;99.90
15115;DHT22;7658;51.456;7.622;2023-04-24T12:10:19;8.00;99.90
15115;DHT22;7658;51.456;7.622;2023-04-24T12:12:45;8.00;99.90
15115;DHT22;7658;51.456;7.622;2023-04-24T12:15:12;8.00;99.90
15115;DHT22;7658;51.456;7.622;2023-04-24T12:17:41;8.00;99.90
15115;DHT22;7658;51.456;7.622;2023-04-24T12:20:08;8.00;99.90
15115;DHT22;7658;51.456;7.622;2023-04-24T12:22:45;8.00;99.90
15115;DHT22;7658;51.456;7.622;2023-04-24T12:25:11;7.90;99.90
15115;DHT22;7658;51.456;7.622;2023-04-24T12:27:37;7.90;99.90
15115;DHT22;7658;51.456;7.622;2023-04-24T12:30:05;7.90;99.90
15115;DHT22;7658;51.456;7.622;2023-04-24T12:32:31;7.90;99.90
15115;DHT22;7658;51.456;7.622;2023-04-24T12:34:57;7.90;99.90
15115;DHT22;7658;51.456;7.622;2023-04-24T12:37:25;7.90;99.90
15115;DHT22;7658;51.456;7.622;2023-04-24T12:40:00;8.00;99.90
15115;DHT22;7658;51.456;7.622;2023-04-24T12:42:28;8.10;99.90
15115;DHT22;7658;51.456;7.622;2023-04-24T12:45:04;8.10;99.90
15115;DHT22;7658;51.456;7.622;2023-04-24T12:47:32;8.30;99.90
15115;DHT22;7658;51.456;7.622;2023-04-24T12:49:58;8.40;99.90
15115;DHT22;7658;51.456;7.622;2023-04-24T12:52:25;8.50;99.90
15115;DHT22;7658;51.456;7.622;2023-04-24T12:54:56;8.70;99.90
15115;DHT22;7658;51.456;7.622;2023-04-24T12:57:23;9.00;99.90
15115;DHT22;7658;51.456;7.622;2023-04-24T12:59:49;9.30;99.90
15115;DHT22;7658;51.456;7.622;2023-04-24T13:02:15;9.40;99.90
15115;DHT22;7658;51.456;7.622;2023-04-24T13:04:45;9.40;99.90
15115;DHT22;7658;51.456;7.622;2023-04-24T13:07:11;9.40;99.90
15115;DHT22;7658;51.456;7.622;2023-04-24T13:09:39;9.40;99.90
15115;DHT22;7658;51.456;7.622;2023-04-24T13:12:05;9.20;99.90
15115;DHT22;7658;51.456;7.622;2023-04-24T13:14:31;9.10;99.90
15115;DHT22;7658;51.456;7.622;2023-04-24T13:16:57;9.20;99.90
15115;DHT22;7658;51.456;7.622;2023-04-24T13:19:26;9.20;99.90
15115;DHT22;7658;51.456;7.622;2023-04-24T13:21:55;9.10;99.90
15115;DHT22;7658;51.456;7.622;2023-04-24T13:24:23;9.10;99.90
15115;DHT22;7658;51.456;7.622;2023-04-24T13:26:55;9.10;99.90
15115;DHT22;7658;51.456;7.622;2023-04-24T13:29:22;9.10;99.90
15115;DHT22;7658;51.456;7.622;2023-04-24T13:31:51;9.00;99.90
15115;DHT22;7658;51.456;7.622;2023-04-24T13:34:17;9.10;99.90
15115;DHT22;7658;51.456;7.622;2023-04-24T13:36:44;9.20;99.90
15115;DHT22;7658;51.456;7.622;2023-04-24T13:39:10;9.30;99.90
15115;DHT22;7658;51.456;7.622;2023-04-24T13:41:36;9.40;99.90
15115;DHT22;7658;51.456;7.622;2023-04-24T13:44:03;9.50;99.90
15115;DHT22;7658;51.456;7.622;2023-04-24T13:46:29;9.70;99.90
15115;DHT22;7658;51.456;7.622;2023-04-24T13:48:55;10.00;99.90
15115;DHT22;7658;51.456;7.622;2023-04-24T13:51:22;10.20;99.90
15115;DHT22;7658;51.456;7.622;2023-04-24T13:53:48;10.00;99.90
15115;DHT22;7658;51.456;7.622;2023-04-24T13:56:14;9.90;99.90
15115;DHT22;7658;51.456;7.622;2023-04-24T13:58:40;9.80;99.90
15115;DHT22;7658;51.456;7.622;2023-04-24T14:01:06;9.80;99.90
15115;DHT22;7658;51.456;7.622;2023-04-24T14:03:33;9.80;99.90
15115;DHT22;7658;51.456;7.622;2023-04-24T14:05:59;9.70;99.90
15115;DHT22;7658;51.456;7.622;2023-04-24T14:08:25;9.70;99.90
15115;DHT22;7658;51.456;7.622;2023-04-24T14:10:51;9.70;99.90
15115;DHT22;7658;51.456;7.622;2023-04-24T14:13:17;9.60;99.90
15115;DHT22;7658;51.456;7.622;2023-04-24T14:15:43;9.70;99.90
15115;DHT22;7658;51.456;7.622;2023-04-24T14:18:08;9.60;99.90
15115;DHT22;7658;51.456;7.622;2023-04-24T14:20:35;9.50;99.90
15115;DHT22;7658;51.456;7.622;2023-04-24T14:23:00;9.60;99.90
15115;DHT22;7658;51.456;7.622;2023-04-24T14:25:26;9.60;99.90
15115;DHT22;7658;51.456;7.622;2023-04-24T14:27:52;9.60;99.90
15115;DHT22;7658;51.456;7.622;2023-04-24T14:30:18;9.70;99.90
15115;DHT22;7658;51.456;7.622;2023-04-24T14:32:45;9.70;99.90
15115;DHT22;7658;51.456;7.622;2023-04-24T14:35:10;9.60;99.90
15115;DHT22;7658;51.456;7.622;2023-04-24T14:37:36;9.50;99.90
15115;DHT22;7658;51.456;7.622;2023-04-24T14:40:03;9.60;99.90
15115;DHT22;7658;51.456;7.622;2023-04-24T14:42:30;9.70;99.90
15115;DHT22;7658;51.456;7.622;2023-04-24T14:44:56;9.80;99.90
15115;DHT22;7658;51.456;7.622;2023-04-24T14:47:22;10.10;99.90
15115;DHT22;7658;51.456;7.622;2023-04-24T14:49:48;10.10;99.90
15115;DHT22;7658;51.456;7.622;2023-04-24T14:52:14;10.30;99.90
15115;DHT22;7658;51.456;7.622;2023-04-24T14:54:42;10.30;99.90
15115;DHT22;7658;51.456;7.622;2023-04-24T14:57:09;10.40;99.90
15115;DHT22;7658;51.456;7.622;2023-04-24T14:59:35;10.30;99.90
15115;DHT22;7658;51.456;7.622;2023-04-24T15:02:01;10.10;99.90
15115;DHT22;7658;51.456;7.622;2023-04-24T15:04:28;10.00;99.90
15115;DHT22;7658;51.456;7.622;2023-04-24T15:06:54;10.10;99.90
15115;DHT22;7658;51.456;7.622;2023-04-24T15:09:21;10.10;99.90
15115;DHT22;7658;51.456;7.622;2023-04-24T15:11:48;10.10;99.90
15115;DHT22;7658;51.456;7.622;2023-04-24T15:14:15;10.10;99.90
15115;DHT22;7658;51.456;7.622;2023-04-24T15:16:40;10.00;99.90
15115;DHT22;7658;51.456;7.622;2023-04-24T15:19:06;10.00;99.90
15115;DHT22;7658;51.456;7.622;2023-04-24T15:21:33;10.00;99.90
15115;DHT22;7658;51.456;7.622;2023-04-24T15:23:58;9.90;99.90
15115;DHT22;7658;51.456;7.622;2023-04-24T15:26:24;9.80;99.90
15115;DHT22;7658;51.456;7.622;2023-04-24T15:28:53;9.80;99.90
15115;DHT22;7658;51.456;7.622;2023-04-24T15:31:19;9.70;99.90
15115;DHT22;7658;51.456;7.622;2023-04-24T15:33:45;9.70;99.90
15115;DHT22;7658;51.456;7.622;2023-04-24T15:36:11;9.60;99.90
15115;DHT22;7658;51.456;7.622;2023-04-24T15:38:37;9.60;99.90
15115;DHT22;7658;51.456;7.622;2023-04-24T15:41:03;9.50;99.90
15115;DHT22;7658;51.456;7.622;2023-04-24T15:43:28;9.40;99.90
15115;DHT22;7658;51.456;7.622;2023-04-24T15:45:56;9.20;99.90
15115;DHT22;7658;51.456;7.622;2023-04-24T15:48:22;8.90;99.90
15115;DHT22;7658;51.456;7.622;2023-04-24T15:50:48;8.80;99.90
15115;DHT22;7658;51.456;7.622;2023-04-24T15:53:14;8.70;99.90
15115;DHT22;7658;51.456;7.622;2023-04-24T15:55:50;8.70;99.90
15115;DHT22;7658;51.456;7.622;2023-04-24T15:58:18;8.90;99.90
15115;DHT22;7658;51.456;7.622;2023-04-24T16:00:44;9.20;99.90
15115;DHT22;7658;51.456;7.622;2023-04-24T16:03:11;9.40;99.90
15115;DHT22;7658;51.456;7.622;2023-04-24T16:05:38;9.40;99.90